createdAt,value
2018-06-05T00:02:10.953Z,78.20
2018-06-05T00:04:39.737Z,78.10
2018-06-05T00:07:15.952Z,78.00
2018-06-05T00:09:48.288Z,77.80
2018-06-05T00:12:33.108Z,78.30
2018-06-05T00:15:02.860Z,78.90
2018-06-05T00:17:37.324Z,79.50
2018-06-05T00:20:06.089Z,80.10
2018-06-05T00:22:54.656Z,80.80
2018-06-05T00:25:35.744Z,81.40
2018-06-05T00:28:04.691Z,82.50
2018-06-05T00:30:40.485Z,83.00
2018-06-05T00:33:19.491Z,83.60
2018-06-05T00:36:05.948Z,84.70
2018-06-05T00:38:34.759Z,85.90
2018-06-05T00:41:03.561Z,85.80
2018-06-05T00:43:32.328Z,86.00
2018-06-05T00:46:01.132Z,87.30
2018-06-05T00:48:33.627Z,87.30
2018-06-05T00:53:31.975Z,90.00
2018-06-05T00:56:00.790Z,90.20
2018-06-05T00:58:32.951Z,90.60
2018-06-05T01:01:07.108Z,90.70
2018-06-05T01:03:35.943Z,91.10
2018-06-05T01:06:06.795Z,91.40
2018-06-05T01:08:52.627Z,92.20
2018-06-05T01:11:33.624Z,92.40
2018-06-05T01:14:07.367Z,92.90
2018-06-05T01:16:46.835Z,92.90
2018-06-05T01:19:15.563Z,93.00
2018-06-05T01:21:45.403Z,93.70
2018-06-05T01:24:14.189Z,93.80
2018-06-05T01:26:50.108Z,94.00
2018-06-05T01:29:26.651Z,94.50
2018-06-05T01:32:06.575Z,94.80
2018-06-05T01:34:41.203Z,95.10
2018-06-05T01:37:11.002Z,95.30
2018-06-05T01:39:51.487Z,95.50
2018-06-05T01:42:22.308Z,96.00
2018-06-05T01:45:03.624Z,96.50
2018-06-05T01:47:32.511Z,96.70
2018-06-05T01:50:04.548Z,96.90
2018-06-05T01:52:38.415Z,97.00
2018-06-05T01:55:07.227Z,97.40
2018-06-05T01:57:36.012Z,98.10
2018-06-05T02:00:04.847Z,99.20
2018-06-05T02:02:37.491Z,99.90
2018-06-05T02:05:06.259Z,99.90
2018-06-05T02:10:38.675Z,99.90
2018-06-05T02:15:40.937Z,99.90
2018-06-05T02:18:09.720Z,99.90
2018-06-05T02:20:41.888Z,99.90
2018-06-05T02:23:33.043Z,99.90
2018-06-05T02:26:07.671Z,99.90
2018-06-05T02:28:43.972Z,99.90
2018-06-05T02:31:19.769Z,99.90
2018-06-05T02:34:09.268Z,99.90
2018-06-05T02:36:38.083Z,99.90
2018-06-05T02:39:07.396Z,99.90
2018-06-05T02:41:41.975Z,99.90
2018-06-05T02:44:35.431Z,99.90
2018-06-05T02:47:09.767Z,99.90
2018-06-05T02:49:38.593Z,99.90
2018-06-05T02:52:08.395Z,99.90
2018-06-05T02:54:55.615Z,99.90
2018-06-05T02:57:38.403Z,99.90
2018-06-05T03:00:13.703Z,99.90
2018-06-05T03:02:50.162Z,99.90
2018-06-05T03:05:25.839Z,99.90
2018-06-05T03:08:00.118Z,99.90
2018-06-05T03:10:30.967Z,99.90
2018-06-05T03:12:59.735Z,99.90
2018-06-05T03:15:36.775Z,99.90
2018-06-05T03:18:05.651Z,99.90
2018-06-05T03:20:34.505Z,99.90
2018-06-05T03:23:06.468Z,99.90
2018-06-05T03:25:56.291Z,99.90
2018-06-05T03:28:29.979Z,99.90
2018-06-05T03:31:10.463Z,99.90
2018-06-05T03:33:43.999Z,99.90
2018-06-05T03:36:12.796Z,99.90
2018-06-05T03:38:44.803Z,99.90
2018-06-05T03:41:18.679Z,99.90
2018-06-05T03:43:54.995Z,99.90
2018-06-05T03:46:29.676Z,99.90
2018-06-05T03:48:58.485Z,99.90
2018-06-05T03:51:33.915Z,99.90
2018-06-05T03:56:33.283Z,99.90
2018-06-05T03:59:06.287Z,99.90
2018-06-05T04:01:38.247Z,99.90
2018-06-05T04:04:10.419Z,99.90
2018-06-05T04:06:45.391Z,99.90
2018-06-05T04:09:15.183Z,99.90
2018-06-05T04:11:43.947Z,99.90
2018-06-05T04:14:20.063Z,99.90
2018-06-05T04:16:51.323Z,99.90
2018-06-05T04:19:24.688Z,99.90
2018-06-05T04:21:55.477Z,99.90
2018-06-05T04:24:28.403Z,99.90
2018-06-05T04:27:00.266Z,99.90
2018-06-05T04:29:36.547Z,99.90
2018-06-05T04:32:07.336Z,99.90
2018-06-05T04:34:36.115Z,99.90
2018-06-05T04:37:21.663Z,99.90
2018-06-05T04:39:57.571Z,99.90
2018-06-05T04:42:30.647Z,99.90
2018-06-05T04:45:00.491Z,99.90
2018-06-05T04:50:05.460Z,99.90
2018-06-05T04:52:41.531Z,99.90
2018-06-05T04:55:22.199Z,99.90
2018-06-05T04:57:52.955Z,99.90
2018-06-05T05:06:18.974Z,98.70
2018-06-05T05:08:58.004Z,97.80
2018-06-05T05:11:26.861Z,97.70
2018-06-05T05:13:55.626Z,97.80
2018-06-05T05:16:30.183Z,97.70
2018-06-05T05:19:08.051Z,97.10
2018-06-05T05:24:29.991Z,94.50
2018-06-05T05:27:11.271Z,95.50
2018-06-05T05:29:49.614Z,93.70
2018-06-05T05:34:53.655Z,92.10
2018-06-05T05:37:22.523Z,90.60
2018-06-05T05:40:01.559Z,88.20
2018-06-05T05:45:32.319Z,82.60
2018-06-05T05:48:07.174Z,74.30
2018-06-05T05:50:41.534Z,73.10
2018-06-05T05:53:15.810Z,73.60
2018-06-05T05:55:58.561Z,68.90
2018-06-05T05:58:28.406Z,69.70
2018-06-05T06:00:58.203Z,68.20
2018-06-05T06:03:28.051Z,70.40
2018-06-05T06:05:58.847Z,69.80
2018-06-05T06:08:29.690Z,68.90
2018-06-05T06:14:00.387Z,65.70
2018-06-05T06:16:29.235Z,63.60
2018-06-05T06:19:06.247Z,63.20
2018-06-05T06:21:39.914Z,64.90
2018-06-05T06:24:08.707Z,61.00
2018-06-05T06:26:38.505Z,61.80
2018-06-05T06:29:08.315Z,61.60
2018-06-05T06:31:50.595Z,61.60
2018-06-05T06:34:21.427Z,61.30
2018-06-05T06:36:55.383Z,61.30
2018-06-05T06:39:29.291Z,62.30
2018-06-05T06:42:00.083Z,62.20
2018-06-05T06:44:45.750Z,63.50
2018-06-05T06:47:22.187Z,61.10
2018-06-05T06:49:50.955Z,62.70
2018-06-05T06:52:22.819Z,61.70
2018-06-05T06:54:52.631Z,60.70
2018-06-05T06:57:23.359Z,58.30
2018-06-05T06:59:52.099Z,59.90
2018-06-05T07:02:22.843Z,59.60
2018-06-05T07:04:53.631Z,59.10
2018-06-05T07:07:32.679Z,59.60
2018-06-05T07:10:01.555Z,58.60
2018-06-05T07:12:33.914Z,58.40
2018-06-05T07:15:02.691Z,58.70
2018-06-05T07:17:32.490Z,57.40
2018-06-05T07:22:38.267Z,57.30
2018-06-05T07:25:09.031Z,55.70
2018-06-05T07:27:56.270Z,55.10
2018-06-05T07:30:33.090Z,54.70
2018-06-05T07:33:02.204Z,53.00
2018-06-05T07:35:49.508Z,52.80
2018-06-05T07:38:18.221Z,51.40
2018-06-05T07:40:51.099Z,50.00
2018-06-05T07:43:21.905Z,52.40
2018-06-05T07:45:51.718Z,50.80
2018-06-05T07:48:23.684Z,49.20
2018-06-05T07:50:52.551Z,49.80
2018-06-05T07:53:23.303Z,48.50
2018-06-05T07:55:58.084Z,47.40
2018-06-05T07:58:26.838Z,47.00
2018-06-05T08:00:55.583Z,46.80
2018-06-05T08:03:32.659Z,45.90
2018-06-05T08:06:07.779Z,45.60
2018-06-05T08:08:37.551Z,44.70
2018-06-05T08:11:08.283Z,45.10
2018-06-05T08:13:44.463Z,44.50
2018-06-05T08:16:16.907Z,43.00
2018-06-05T08:18:45.730Z,42.40
2018-06-05T08:21:16.528Z,41.40
2018-06-05T08:23:45.279Z,41.20
2018-06-05T08:26:16.110Z,39.40
2018-06-05T08:28:48.407Z,39.30
2018-06-05T08:31:17.202Z,39.70
2018-06-05T08:33:46.019Z,39.00
2018-06-05T08:36:14.795Z,39.50
2018-06-05T08:38:51.291Z,39.50
2018-06-05T08:46:17.915Z,40.50
2018-06-05T08:48:47.727Z,41.00
2018-06-05T08:51:22.058Z,40.70
2018-06-05T08:53:54.753Z,40.80
2018-06-05T08:56:42.732Z,38.10
2018-06-05T08:59:17.643Z,38.80
2018-06-05T09:01:49.875Z,37.10
2018-06-05T09:04:18.614Z,35.30
2018-06-05T09:06:51.851Z,36.20
2018-06-05T09:09:20.630Z,35.90
2018-06-05T09:11:55.302Z,35.20
2018-06-05T09:14:24.035Z,34.50
2018-06-05T09:16:56.332Z,33.20
2018-06-05T09:22:04.442Z,34.90
2018-06-05T09:24:39.718Z,37.50
2018-06-05T09:27:09.491Z,34.60
2018-06-05T09:29:38.290Z,33.80
2018-06-05T09:32:09.034Z,33.90
2018-06-05T09:34:38.734Z,32.40
2018-06-05T09:37:08.506Z,30.70
2018-06-05T09:44:44.250Z,30.40
2018-06-05T09:49:51.430Z,31.80
2018-06-05T09:52:27.556Z,32.90
2018-06-05T09:55:02.558Z,32.20
2018-06-05T09:57:31.395Z,29.50
2018-06-05T10:00:00.202Z,29.50
2018-06-05T10:02:33.811Z,29.00
2018-06-05T10:05:04.594Z,29.50
2018-06-05T10:07:40.370Z,28.00
2018-06-05T10:10:09.138Z,28.10
2018-06-05T10:12:42.583Z,29.00
2018-06-05T10:17:51.706Z,27.90
2018-06-05T10:20:21.450Z,28.30
2018-06-05T10:22:51.430Z,29.20
2018-06-05T10:25:20.114Z,29.10
2018-06-05T10:27:51.009Z,28.10
2018-06-05T10:30:20.640Z,27.30
2018-06-05T10:32:49.450Z,27.20
2018-06-05T10:35:21.558Z,26.30
2018-06-05T10:37:52.186Z,26.60
2018-06-05T10:40:26.510Z,26.80
2018-06-05T10:42:55.362Z,26.40
2018-06-05T10:45:24.146Z,26.70
2018-06-05T10:47:52.946Z,25.30
2018-06-05T10:50:21.698Z,25.50
2018-06-05T10:52:50.430Z,25.80
2018-06-05T10:55:20.174Z,25.50
2018-06-05T10:57:52.586Z,26.50
2018-06-05T11:00:24.570Z,29.70
2018-06-05T11:02:53.300Z,32.30
2018-06-05T11:05:28.930Z,33.80
2018-06-05T11:07:57.766Z,33.00
2018-06-05T11:10:26.574Z,30.20
2018-06-05T11:12:55.846Z,29.00
2018-06-05T11:15:31.134Z,28.00
2018-06-05T11:20:38.378Z,26.50
2018-06-05T11:23:09.150Z,25.90
2018-06-05T11:25:41.393Z,25.10
2018-06-05T11:28:10.130Z,25.80
2018-06-05T11:30:40.866Z,27.30
2018-06-05T11:33:09.710Z,29.60
2018-06-05T11:35:50.366Z,31.10
2018-06-05T11:38:19.174Z,32.40
2018-06-05T11:40:47.930Z,34.60
2018-06-05T11:43:24.831Z,36.30
2018-06-05T11:45:53.578Z,36.30
2018-06-05T11:48:22.415Z,33.80
2018-06-05T11:50:51.182Z,32.20
2018-06-05T11:53:22.014Z,30.80
2018-06-05T11:55:51.798Z,29.30
2018-06-05T11:58:21.513Z,26.80
2018-06-05T12:01:08.948Z,24.70
2018-06-05T12:06:10.098Z,27.90
2018-06-05T12:08:40.822Z,31.00
2018-06-05T12:11:09.565Z,33.30
2018-06-05T12:13:51.610Z,32.60
2018-06-05T12:19:13.582Z,31.20
2018-06-05T12:21:50.557Z,30.50
2018-06-05T12:24:22.973Z,30.50
2018-06-05T12:26:52.761Z,30.40
2018-06-05T12:29:25.073Z,30.20
2018-06-05T12:34:57.491Z,28.00
2018-06-05T12:37:42.439Z,25.40
2018-06-05T12:40:23.394Z,24.70
2018-06-05T12:42:57.062Z,24.00
2018-06-05T12:45:25.817Z,24.00
2018-06-05T12:47:55.549Z,24.30
2018-06-05T12:50:45.050Z,27.30
2018-06-05T12:53:13.817Z,29.60
2018-06-05T12:55:46.166Z,30.90
2018-06-05T12:58:14.969Z,33.50
2018-06-05T13:00:49.161Z,34.60
2018-06-05T13:03:21.357Z,35.80
2018-06-05T13:05:57.689Z,35.40
2018-06-05T13:08:26.417Z,33.40
2018-06-05T13:11:03.232Z,29.70
2018-06-05T13:13:40.093Z,28.00
2018-06-05T13:16:09.829Z,28.10
2018-06-05T13:18:46.034Z,28.10
2018-06-05T13:21:28.421Z,28.70
2018-06-05T13:24:07.621Z,26.90
2018-06-05T13:26:38.421Z,25.40
2018-06-05T13:29:09.137Z,24.70
2018-06-05T13:31:50.605Z,25.00
2018-06-05T13:34:36.405Z,24.80
2018-06-05T13:37:10.653Z,25.30
2018-06-05T13:39:45.708Z,24.80
2018-06-05T13:44:44.306Z,27.20
2018-06-05T13:47:18.121Z,28.20
2018-06-05T13:49:51.864Z,29.40
2018-06-05T13:52:20.696Z,31.20
2018-06-05T13:54:49.535Z,32.30
2018-06-05T13:57:22.501Z,33.20
2018-06-05T13:59:55.477Z,33.80
2018-06-05T14:02:24.319Z,34.30
2018-06-05T14:04:58.765Z,32.80
2018-06-05T14:07:29.573Z,29.20
2018-06-05T14:10:01.957Z,28.30
2018-06-05T14:12:30.733Z,25.90
2018-06-05T14:14:59.482Z,24.60
2018-06-05T14:17:30.257Z,25.80
2018-06-05T14:19:59.033Z,26.10
2018-06-05T14:22:34.813Z,25.90
2018-06-05T14:25:05.649Z,25.90
2018-06-05T14:27:35.445Z,27.00
2018-06-05T14:30:10.277Z,26.40
2018-06-05T14:32:52.009Z,26.40
2018-06-05T14:35:20.904Z,26.70
2018-06-05T14:37:52.265Z,26.90
2018-06-05T14:40:23.013Z,27.70
2018-06-05T14:42:57.761Z,29.20
2018-06-05T14:45:30.502Z,28.80
2018-06-05T14:48:01.461Z,28.30
2018-06-05T14:50:50.581Z,28.60
2018-06-05T14:53:19.481Z,27.50
2018-06-05T14:55:54.542Z,27.20
2018-06-05T14:58:27.929Z,27.70
2018-06-05T15:01:02.677Z,28.20
2018-06-05T15:03:32.493Z,28.30
2018-06-05T15:06:01.357Z,28.10
2018-06-05T15:08:30.373Z,28.60
2018-06-05T15:11:03.137Z,29.00
2018-06-05T15:13:41.622Z,29.20
2018-06-05T15:16:10.333Z,29.30
2018-06-05T15:18:42.601Z,28.60
2018-06-05T15:21:11.430Z,28.00
2018-06-05T15:23:41.162Z,26.50
2018-06-05T15:26:10.969Z,26.20
2018-06-05T15:28:52.013Z,26.60
2018-06-05T15:31:27.293Z,26.40
2018-06-05T15:33:56.139Z,26.40
2018-06-05T15:36:29.274Z,26.90
2018-06-05T15:38:59.053Z,27.80
2018-06-05T15:41:30.955Z,28.00
2018-06-05T15:43:59.725Z,27.90
2018-06-05T15:46:28.505Z,29.50
2018-06-05T15:48:57.236Z,30.10
2018-06-05T15:51:32.385Z,31.60
2018-06-05T15:54:01.145Z,31.10
2018-06-05T15:56:33.694Z,30.40
2018-06-05T15:59:05.737Z,29.90
2018-06-05T16:01:46.453Z,29.90
2018-06-05T16:04:15.310Z,29.60
2018-06-05T16:06:49.608Z,30.00
2018-06-05T16:09:18.364Z,31.20
2018-06-05T16:11:48.092Z,31.80
2018-06-05T16:14:16.849Z,32.80
2018-06-05T16:16:46.577Z,31.70
2018-06-05T16:19:15.305Z,31.30
2018-06-05T16:21:46.041Z,30.70
2018-06-05T16:24:15.783Z,31.50
2018-06-05T16:29:13.908Z,31.10
2018-06-05T16:31:45.776Z,30.90
2018-06-05T16:34:14.577Z,29.70
2018-06-05T16:36:43.365Z,29.80
2018-06-05T16:39:12.161Z,30.30
2018-06-05T16:41:40.941Z,30.60
2018-06-05T16:44:09.712Z,30.20
2018-06-05T16:46:44.288Z,30.20
2018-06-05T16:49:13.109Z,30.70
2018-06-05T16:51:48.747Z,31.40
2018-06-05T16:54:21.205Z,31.60
2018-06-05T16:56:55.129Z,31.90
2018-06-05T16:59:23.968Z,32.40
2018-06-05T17:01:52.752Z,32.80
2018-06-05T17:04:26.601Z,33.00
2018-06-05T17:06:59.497Z,33.10
2018-06-05T17:09:38.640Z,33.50
2018-06-05T17:12:09.381Z,33.70
2018-06-05T17:14:39.113Z,33.50
2018-06-05T17:17:08.935Z,33.80
2018-06-05T17:19:37.688Z,34.80
2018-06-05T17:22:06.497Z,35.30
2018-06-05T17:24:38.872Z,35.30
2018-06-05T17:27:10.986Z,35.70
2018-06-05T17:29:51.313Z,35.90
2018-06-05T17:34:56.452Z,36.90
2018-06-05T17:37:25.237Z,36.90
2018-06-05T17:40:00.548Z,37.40
2018-06-05T17:42:35.112Z,37.80
2018-06-05T17:45:03.840Z,37.70
2018-06-05T17:47:32.656Z,38.10
2018-06-05T17:50:10.904Z,38.40
2018-06-05T17:52:45.476Z,39.00
2018-06-05T17:55:14.200Z,39.60
2018-06-05T17:57:42.985Z,39.90
2018-06-05T18:00:11.644Z,40.50
2018-06-05T18:02:45.232Z,40.10
2018-06-05T18:05:13.996Z,40.50
2018-06-05T18:08:01.004Z,40.80
2018-06-05T18:10:33.272Z,41.40
2018-06-05T18:13:02.184Z,42.10
2018-06-05T18:15:31.008Z,43.00
2018-06-05T18:20:39.988Z,44.40
2018-06-05T18:23:08.856Z,45.40
2018-06-05T18:25:37.636Z,45.20
2018-06-05T18:28:11.860Z,45.50
2018-06-05T18:30:40.592Z,45.90
2018-06-05T18:33:09.428Z,46.20
2018-06-05T18:35:39.224Z,46.00
2018-06-05T18:38:07.958Z,46.40
2018-06-05T18:40:37.685Z,46.50
2018-06-05T18:43:10.536Z,46.80
2018-06-05T18:45:45.224Z,47.10
2018-06-05T18:48:14.016Z,47.30
2018-06-05T18:50:42.754Z,47.60
2018-06-05T18:53:11.456Z,47.70
2018-06-05T18:55:40.180Z,47.90
2018-06-05T18:58:10.036Z,48.40
2018-06-05T19:00:38.804Z,48.70
2018-06-05T19:03:11.087Z,48.70
2018-06-05T19:05:40.852Z,48.70
2018-06-05T19:08:11.595Z,49.20
2018-06-05T19:10:40.452Z,49.40
2018-06-05T19:13:10.025Z,50.00
2018-06-05T19:15:38.787Z,50.30
2018-06-05T19:18:11.359Z,50.50
2018-06-05T19:20:42.107Z,51.00
2018-06-05T19:23:11.947Z,51.30
2018-06-05T19:25:40.807Z,52.00
2018-06-05T19:28:11.627Z,51.80
2018-06-05T19:30:47.151Z,52.20
2018-06-05T19:33:17.076Z,52.70
2018-06-05T19:35:50.764Z,52.90
2018-06-05T19:38:20.544Z,53.10
2018-06-05T19:40:52.759Z,52.90
2018-06-05T19:43:21.515Z,52.80
2018-06-05T19:45:53.815Z,52.70
2018-06-05T19:48:25.843Z,52.70
2018-06-05T19:50:54.683Z,52.90
2018-06-05T19:53:34.044Z,52.90
2018-06-05T19:56:02.863Z,52.60
2018-06-05T19:58:33.687Z,52.40
2018-06-05T20:01:02.551Z,52.40
2018-06-05T20:03:31.363Z,52.70
2018-06-05T20:06:02.280Z,52.80
2018-06-05T20:08:31.036Z,52.70
2018-06-05T20:11:00.920Z,52.80
2018-06-05T20:13:32.979Z,53.00
2018-06-05T20:16:01.867Z,53.20
2018-06-05T20:18:30.731Z,53.40
2018-06-05T20:20:59.507Z,53.60
2018-06-05T20:23:29.279Z,53.80
2018-06-05T20:25:58.135Z,54.10
2018-06-05T20:28:27.031Z,54.50
2018-06-05T20:30:55.901Z,54.90
2018-06-05T20:33:25.691Z,55.00
2018-06-05T20:35:55.511Z,55.50
2018-06-05T20:38:26.380Z,56.50
2018-06-05T20:43:27.228Z,56.70
2018-06-05T20:46:04.091Z,57.10
2018-06-05T20:48:33.563Z,57.80
2018-06-05T20:51:11.840Z,58.40
2018-06-05T20:53:44.675Z,58.90
2018-06-05T20:56:13.415Z,59.90
2018-06-05T20:58:42.243Z,60.90
2018-06-05T21:01:12.059Z,61.80
2018-06-05T21:03:40.787Z,62.40
2018-06-05T21:06:14.199Z,63.50
2018-06-05T21:08:48.115Z,64.70
2018-06-05T21:11:22.529Z,66.10
2018-06-05T21:13:51.279Z,67.10
2018-06-05T21:16:22.123Z,68.60
2018-06-05T21:18:51.921Z,70.10
2018-06-05T21:21:31.723Z,72.40
2018-06-05T21:24:05.327Z,74.40
2018-06-05T21:26:37.239Z,75.90
2018-06-05T21:29:07.071Z,78.10
2018-06-05T21:31:53.163Z,79.10
2018-06-05T21:34:22.967Z,80.50
2018-06-05T21:37:01.870Z,82.30
2018-06-05T21:39:31.679Z,83.70
2018-06-05T21:42:00.424Z,85.50
2018-06-05T21:44:32.897Z,87.30
2018-06-05T21:47:06.881Z,87.90
2018-06-05T21:49:38.804Z,89.50
2018-06-05T21:52:07.595Z,90.10
2018-06-05T21:54:47.062Z,90.60
2018-06-05T21:57:21.427Z,90.70
2018-06-05T21:59:51.203Z,91.40
2018-06-05T22:02:23.223Z,91.90
2018-06-05T22:04:52.999Z,92.20
2018-06-05T22:07:21.824Z,92.50
2018-06-05T22:09:51.655Z,92.90
2018-06-05T22:12:21.443Z,93.50
2018-06-05T22:14:51.243Z,93.70
2018-06-05T22:17:21.091Z,94.20
2018-06-05T22:19:49.879Z,94.70
2018-06-05T22:22:21.723Z,95.30
2018-06-05T22:27:23.675Z,96.60
2018-06-05T22:29:53.395Z,97.20
2018-06-05T22:32:24.247Z,97.60
2018-06-05T22:37:21.484Z,98.70
2018-06-05T22:39:53.971Z,99.00
2018-06-05T22:42:22.795Z,99.60
2018-06-05T22:44:52.609Z,99.90
2018-06-05T22:47:22.399Z,99.90
2018-06-05T22:49:54.895Z,99.90
2018-06-05T22:52:23.767Z,99.90
2018-06-05T22:57:25.063Z,99.90
2018-06-05T23:00:04.011Z,99.90
2018-06-05T23:02:32.735Z,99.90
2018-06-05T23:05:03.601Z,99.90
2018-06-05T23:07:33.376Z,99.90
2018-06-05T23:10:03.199Z,99.90
2018-06-05T23:12:34.031Z,99.90
2018-06-05T23:15:08.828Z,99.90
2018-06-05T23:17:37.655Z,99.90
2018-06-05T23:20:12.227Z,99.90
2018-06-05T23:22:41.059Z,99.90
2018-06-05T23:25:13.594Z,99.90
2018-06-05T23:27:42.439Z,99.90
2018-06-05T23:30:11.195Z,99.90
2018-06-05T23:32:45.220Z,99.90
2018-06-05T23:35:13.967Z,99.90
2018-06-05T23:37:42.775Z,99.90
2018-06-05T23:40:15.877Z,99.90
2018-06-05T23:42:46.739Z,99.90
2018-06-05T23:45:16.483Z,99.90
2018-06-05T23:47:45.347Z,99.90
2018-06-05T23:50:14.127Z,99.90
2018-06-05T23:52:44.900Z,99.90
2018-06-05T23:55:13.659Z,99.90
2018-06-05T23:57:42.503Z,99.90
